Pays
Station

 

Conditions  météo  pour  Norwich Weather Centre  -  Royaume-Uni    Royaume-Uni

  
27 °C
    
 
 

METAR pour Norwich Weather Centre :

EGSH 231750Z 13007KT CAVOK 27/16 Q1016 NOSIG

 

Voici le bulletin pour Norwich Weather Centre - Royaume-Uni.
 
Le bulletin a été fait il y a 30 minutes, à 17:50 UTC .
Le vent soufflait à la vitesse de 3.6 mètres par seconde de Sud-est (130°).
 
La température était de 27 °C, avec un point de rosée à 16 °C.
La température ressentie était de 28 °C.
 
La pression atmosphérique était de 1016 hPa.
L'humidité relative était de 51.0%.
 
Il y avait pas de nuages en-dessous de 1500 mètres et pas de cumulonimbus.
 
La visibilité globale était de supérieure à 10 kilomètres.
 

 
 
 

Pays :   A   B   C   D   E   F   G   H   I   J   K   L   M   N   O   P   Q   R   S   T   U   V   W   Y   Z

 

Partenaires :  Info Météo avec Met'info
Météo Marine avec MeteoMarine.net
Infos Site  |  Infos Légales  |  Crédits  |  Confidentialité
Contactez-nous  |  Ajouter aux favoris
© 2013-2019 METAR - Tous droits réservés